Time;durP1;ratioP1;P1;durP2;ratioP2;P2;SDS_P1;SDS_P2;PMS_P1;PMS_P2;Temp;Humidity;BMP_temperature;BMP_pressure;BME280_temperature;BME280_humidity;BME280_pressure;Samples;Min_cycle;Max_cycle;Signal;HPM_P1;HPM_P2
2022/08/06 00:01:56;;;;;;;5.15;0.85;;;14.70;99.40;;;;;;5053494;28;37247;-61
2022/08/06 00:04:24;;;;;;;3.13;0.82;;;14.60;99.40;;;;;;5052705;28;38178;-61
2022/08/06 00:06:51;;;;;;;2.45;0.77;;;14.60;99.40;;;;;;5053025;28;35282;-61
2022/08/06 00:09:19;;;;;;;3.40;0.80;;;14.60;99.50;;;;;;5053097;28;38658;-57
2022/08/06 00:11:46;;;;;;;4.32;0.90;;;14.60;99.60;;;;;;5053972;28;37733;-57
2022/08/06 00:14:15;;;;;;;3.20;0.70;;;14.50;99.60;;;;;;5053602;28;36294;-57
2022/08/06 00:16:42;;;;;;;2.47;0.90;;;14.50;99.70;;;;;;5053783;28;37337;-57
2022/08/06 00:19:09;;;;;;;1.65;0.77;;;14.50;99.80;;;;;;5053534;28;39287;-57
2022/08/06 00:21:37;;;;;;;3.50;0.80;;;14.50;99.80;;;;;;5053738;28;37832;-60
2022/08/06 00:24:04;;;;;;;4.30;1.00;;;14.50;99.90;;;;;;5054509;28;36172;-56
2022/08/06 00:26:31;;;;;;;3.05;0.80;;;14.50;99.90;;;;;;5052069;28;36802;-60
2022/08/06 00:28:59;;;;;;;4.65;0.90;;;14.50;99.90;;;;;;5050575;28;39138;-60
2022/08/06 00:31:27;;;;;;;3.42;1.05;;;14.50;99.90;;;;;;5053795;28;37439;-60
2022/08/06 00:33:55;;;;;;;3.75;0.80;;;14.50;99.90;;;;;;5051337;28;36222;-60
2022/08/06 00:36:23;;;;;;;4.10;1.42;;;14.50;99.90;;;;;;5052206;28;37642;-61
2022/08/06 00:38:50;;;;;;;2.78;0.95;;;14.40;99.90;;;;;;5051109;28;39378;-61
2022/08/06 00:41:19;;;;;;;2.40;1.00;;;14.40;99.90;;;;;;5052882;28;37888;-56
2022/08/06 00:43:47;;;;;;;2.75;0.90;;;14.40;99.90;;;;;;5053745;28;38013;-57
2022/08/06 00:46:14;;;;;;;7.60;1.02;;;14.30;99.90;;;;;;5051519;28;36122;-57
2022/08/06 00:48:43;;;;;;;3.35;1.00;;;14.20;99.90;;;;;;5052660;28;38058;-60
2022/08/06 00:51:10;;;;;;;3.67;0.90;;;14.20;99.90;;;;;;5051074;28;37687;-61
2022/08/06 00:53:37;;;;;;;3.75;0.82;;;14.20;99.90;;;;;;5053797;28;37181;-60
2022/08/06 00:56:05;;;;;;;4.20;1.02;;;14.20;99.90;;;;;;5050773;28;36145;-57
2022/08/06 00:58:34;;;;;;;5.40;1.00;;;14.20;99.90;;;;;;5053676;28;20117;-61
2022/08/06 01:01:02;;;;;;;3.63;0.90;;;14.20;99.90;;;;;;5052438;28;37190;-57
2022/08/06 01:03:29;;;;;;;5.68;0.98;;;14.20;99.90;;;;;;5052327;28;37560;-57
2022/08/06 01:05:58;;;;;;;2.70;0.90;;;14.10;99.90;;;;;;5052261;28;35392;-57
2022/08/06 01:08:25;;;;;;;2.28;0.90;;;14.10;99.90;;;;;;5053469;28;37272;-57
2022/08/06 01:10:52;;;;;;;2.15;1.15;;;14.10;99.90;;;;;;5051066;28;40416;-60
2022/08/06 01:13:19;;;;;;;4.32;1.40;;;14.00;99.90;;;;;;5052111;28;37507;-60
2022/08/06 01:15:52;;;;;;;4.40;1.08;;;14.00;99.90;;;;;;5052950;28;36202;-57
2022/08/06 01:18:26;;;;;;;4.82;1.20;;;14.00;99.90;;;;;;5053118;28;37662;-57
2022/08/06 01:21:09;;;;;;;2.42;1.00;;;14.00;99.90;;;;;;5050190;28;38699;-57
2022/08/06 01:23:57;;;;;;;1.77;0.82;;;14.00;99.90;;;;;;5052774;28;38818;-60
2022/08/06 01:26:32;;;;;;;4.60;1.33;;;14.00;99.90;;;;;;5050432;28;36630;-61
2022/08/06 01:29:05;;;;;;;3.10;0.90;;;14.10;99.90;;;;;;5052356;28;38244;-60
2022/08/06 01:31:37;;;;;;;2.70;0.77;;;14.10;99.90;;;;;;5052230;28;41712;-61
2022/08/06 01:34:10;;;;;;;2.80;1.00;;;14.10;99.90;;;;;;5051540;28;37538;-57
2022/08/06 01:36:41;;;;;;;2.23;0.97;;;14.10;99.90;;;;;;5052181;28;36617;-57
2022/08/06 01:39:12;;;;;;;3.53;1.10;;;14.10;99.90;;;;;;5049463;28;37413;-57
2022/08/06 01:41:44;;;;;;;2.47;0.90;;;14.00;99.90;;;;;;5051769;28;39106;-61
2022/08/06 01:44:15;;;;;;;3.20;1.40;;;14.00;99.90;;;;;;5052100;28;37683;-61
2022/08/06 01:46:46;;;;;;;2.10;0.85;;;13.90;99.90;;;;;;5051573;28;39199;-61
2022/08/06 01:49:16;;;;;;;3.33;0.90;;;13.90;99.90;;;;;;5050176;28;36248;-61
2022/08/06 01:51:46;;;;;;;4.22;1.00;;;13.90;99.90;;;;;;5051040;28;39854;-60
2022/08/06 01:54:15;;;;;;;3.72;1.20;;;14.00;99.90;;;;;;5051065;28;36161;-60
2022/08/06 01:56:44;;;;;;;4.63;0.90;;;14.00;99.90;;;;;;5050263;28;35412;-61
2022/08/06 01:59:17;;;;;;;6.55;1.25;;;14.00;99.90;;;;;;5051580;28;39483;-60
2022/08/06 02:01:47;;;;;;;2.65;1.00;;;14.00;99.90;;;;;;5050966;28;38449;-60
2022/08/06 02:04:16;;;;;;;3.75;1.05;;;14.00;99.90;;;;;;5052218;28;37647;-60
2022/08/06 02:06:47;;;;;;;4.20;1.02;;;14.00;99.90;;;;;;5049194;28;38036;-60
2022/08/06 02:09:20;;;;;;;2.00;1.13;;;14.00;99.90;;;;;;5052062;28;37486;-60
2022/08/06 02:11:54;;;;;;;3.00;1.20;;;14.00;99.90;;;;;;5051117;28;36658;-61
2022/08/06 02:14:25;;;;;;;4.07;1.30;;;14.00;99.90;;;;;;5050455;28;40698;-60
2022/08/06 02:16:56;;;;;;;6.68;2.20;;;14.00;99.90;;;;;;5050415;28;36654;-60
2022/08/06 02:19:25;;;;;;;3.20;1.60;;;14.00;99.90;;;;;;5051029;28;37495;-61
2022/08/06 02:21:53;;;;;;;6.47;2.00;;;14.00;99.90;;;;;;5050694;28;38302;-60
2022/08/06 02:24:24;;;;;;;3.75;1.48;;;14.00;99.90;;;;;;5053024;28;37132;-57
2022/08/06 02:26:53;;;;;;;4.00;1.70;;;14.00;99.90;;;;;;5047957;28;36767;-57
2022/08/06 02:29:24;;;;;;;6.28;1.80;;;13.90;99.90;;;;;;5051758;28;38126;-57
2022/08/06 02:31:51;;;;;;;2.65;1.20;;;13.90;99.90;;;;;;5051127;28;37838;-57
2022/08/06 02:34:20;;;;;;;4.03;1.30;;;13.90;99.90;;;;;;5052174;28;36028;-57
2022/08/06 02:36:56;;;;;;;2.90;1.20;;;13.90;99.90;;;;;;5050177;28;35398;-57
2022/08/06 02:39:26;;;;;;;3.50;1.42;;;13.90;99.90;;;;;;5050626;28;37498;-57
2022/08/06 02:42:02;;;;;;;3.33;1.00;;;13.80;99.90;;;;;;5050770;28;36446;-57
2022/08/06 02:44:40;;;;;;;1.30;0.73;;;13.80;99.90;;;;;;5051614;28;39028;-57
2022/08/06 02:47:13;;;;;;;2.05;0.80;;;13.80;99.90;;;;;;5051139;28;38780;-57
2022/08/06 02:49:45;;;;;;;3.13;1.00;;;13.80;99.90;;;;;;5049269;28;36480;-57
2022/08/06 02:52:19;;;;;;;2.08;0.77;;;13.80;99.90;;;;;;5050840;28;36700;-57
2022/08/06 02:54:54;;;;;;;3.33;1.05;;;13.80;99.90;;;;;;5049829;28;35585;-56
2022/08/06 02:57:24;;;;;;;5.43;0.80;;;13.70;99.90;;;;;;5052810;28;37774;-57
2022/08/06 03:00:00;;;;;;;0.75;0.52;;;13.80;99.90;;;;;;5055459;28;37725;-56
2022/08/06 03:02:30;;;;;;;1.45;0.70;;;13.70;99.90;;;;;;5054029;28;37510;-57
2022/08/06 03:05:00;;;;;;;3.30;0.80;;;13.70;99.90;;;;;;5054507;28;39625;-57
2022/08/06 03:07:29;;;;;;;4.25;0.82;;;13.70;99.90;;;;;;5056037;28;36280;-57
2022/08/06 03:09:58;;;;;;;1.48;0.70;;;13.80;99.90;;;;;;5053893;28;37675;-57
2022/08/06 03:12:26;;;;;;;2.50;0.70;;;13.70;99.90;;;;;;5053251;28;37606;-57
2022/08/06 03:14:56;;;;;;;3.70;1.10;;;13.70;99.90;;;;;;5052518;28;37330;-57
2022/08/06 03:17:24;;;;;;;1.67;0.80;;;13.80;99.90;;;;;;5053599;28;35226;-57
2022/08/06 03:19:52;;;;;;;3.10;0.70;;;13.80;99.90;;;;;;5054816;28;37025;-57
2022/08/06 03:22:20;;;;;;;4.15;1.02;;;13.70;99.90;;;;;;5054130;28;37352;-56
2022/08/06 03:24:49;;;;;;;2.00;0.85;;;13.70;99.90;;;;;;5054680;28;38432;-60
2022/08/06 03:27:18;;;;;;;2.63;0.95;;;13.70;99.90;;;;;;5049924;28;37437;-60
2022/08/06 03:29:46;;;;;;;2.15;0.98;;;13.70;99.90;;;;;;5053024;28;37404;-60
2022/08/06 03:32:15;;;;;;;3.70;0.90;;;13.70;99.90;;;;;;5054596;28;37361;-60
2022/08/06 03:34:44;;;;;;;3.55;0.98;;;13.60;99.90;;;;;;5054361;28;37427;-61
2022/08/06 03:37:12;;;;;;;1.63;0.90;;;13.60;99.90;;;;;;5054031;28;36928;-60
2022/08/06 03:39:42;;;;;;;3.92;1.10;;;13.60;99.90;;;;;;5055299;28;37064;-60
2022/08/06 03:42:10;;;;;;;2.47;0.90;;;13.50;99.90;;;;;;5052369;28;39342;-60
2022/08/06 03:44:37;;;;;;;2.55;1.10;;;13.50;99.90;;;;;;5051549;28;36119;-61
2022/08/06 03:47:08;;;;;;;2.92;1.00;;;13.50;99.90;;;;;;5054231;28;37688;-61
2022/08/06 03:49:39;;;;;;;2.22;0.90;;;13.50;99.90;;;;;;5052953;28;40140;-60
2022/08/06 03:52:07;;;;;;;3.25;0.93;;;13.50;99.90;;;;;;5054164;28;37595;-60
2022/08/06 03:54:43;;;;;;;2.78;1.00;;;13.50;99.90;;;;;;5053727;28;38755;-60
2022/08/06 03:57:13;;;;;;;2.85;1.10;;;13.50;99.90;;;;;;5051011;28;37467;-60
2022/08/06 03:59:44;;;;;;;3.05;0.80;;;13.50;99.90;;;;;;5052900;28;38471;-61
2022/08/06 04:02:13;;;;;;;2.03;0.88;;;13.50;99.90;;;;;;5049893;28;38486;-61
2022/08/06 04:04:43;;;;;;;1.55;1.00;;;13.60;99.90;;;;;;5049779;28;35990;-61
2022/08/06 04:07:13;;;;;;;4.00;1.08;;;13.60;99.90;;;;;;5049256;28;37679;-60
2022/08/06 04:09:41;;;;;;;2.03;1.10;;;13.60;99.90;;;;;;5051533;28;36439;-60
2022/08/06 04:12:09;;;;;;;4.70;1.30;;;13.60;99.90;;;;;;5049453;28;37777;-61
2022/08/06 04:14:37;;;;;;;3.28;1.20;;;13.60;99.90;;;;;;5052497;28;39738;-60
2022/08/06 04:17:05;;;;;;;4.18;1.30;;;13.60;99.90;;;;;;5050634;28;37787;-60
2022/08/06 04:19:34;;;;;;;3.47;1.10;;;13.70;99.90;;;;;;5051210;28;38752;-60
2022/08/06 04:22:03;;;;;;;3.75;1.17;;;13.70;99.90;;;;;;5052372;28;37700;-60
2022/08/06 04:24:31;;;;;;;6.25;1.20;;;13.70;99.90;;;;;;5051423;28;40324;-60
2022/08/06 04:27:00;;;;;;;5.07;1.40;;;13.80;99.90;;;;;;5050919;28;36661;-61
2022/08/06 04:29:31;;;;;;;7.53;1.50;;;13.80;99.90;;;;;;5053445;28;38353;-61
2022/08/06 04:32:00;;;;;;;2.78;1.13;;;13.90;99.90;;;;;;5053262;28;37785;-61
2022/08/06 04:34:29;;;;;;;3.10;1.25;;;14.00;99.90;;;;;;5051177;28;36967;-60
2022/08/06 04:37:01;;;;;;;2.72;1.13;;;14.00;99.90;;;;;;5051394;28;36178;-61
2022/08/06 04:39:31;;;;;;;6.65;1.08;;;14.10;99.90;;;;;;5052388;28;38993;-60
2022/08/06 04:41:58;;;;;;;5.05;1.30;;;14.10;99.90;;;;;;5052628;28;37786;-60
2022/08/06 04:44:27;;;;;;;3.28;1.15;;;14.10;99.90;;;;;;5050643;28;37857;-60
2022/08/06 04:46:55;;;;;;;3.42;1.25;;;14.10;99.90;;;;;;5051864;28;37549;-60
2022/08/06 04:49:23;;;;;;;2.75;0.98;;;14.20;99.90;;;;;;5052440;28;37406;-60
2022/08/06 04:51:50;;;;;;;7.18;1.75;;;14.20;99.90;;;;;;5051975;28;37171;-60
2022/08/06 04:54:18;;;;;;;2.33;1.00;;;14.20;99.90;;;;;;5051201;28;38618;-61
2022/08/06 04:56:46;;;;;;;3.47;1.15;;;14.20;99.90;;;;;;5051020;28;36477;-60
2022/08/06 04:59:14;;;;;;;3.10;1.33;;;14.10;99.90;;;;;;5051691;28;37774;-60
2022/08/06 05:01:41;;;;;;;1.90;1.10;;;14.10;99.90;;;;;;5049808;28;37857;-60
2022/08/06 05:04:08;;;;;;;4.40;1.10;;;14.10;99.90;;;;;;5048389;28;37085;-60
2022/08/06 05:06:45;;;;;;;5.82;1.20;;;14.10;99.90;;;;;;5050390;28;35194;-60
2022/08/06 05:09:17;;;;;;;2.50;1.10;;;14.10;99.90;;;;;;5052399;28;39297;-60
2022/08/06 05:11:52;;;;;;;3.33;1.20;;;14.10;99.90;;;;;;5052159;28;38935;-60
2022/08/06 05:14:25;;;;;;;1.95;1.27;;;14.10;99.90;;;;;;5049834;28;36238;-60
2022/08/06 05:16:52;;;;;;;;;;;14.00;99.90;;;;;;5006234;28;1098911;-60
2022/08/06 05:19:25;;;;;;;4.40;1.58;;;14.00;99.90;;;;;;5026873;28;38634;-60
2022/08/06 05:21:54;;;;;;;3.00;0.88;;;14.00;99.90;;;;;;5022305;28;37873;-60
2022/08/06 05:24:22;;;;;;;3.65;1.05;;;14.10;99.90;;;;;;5027121;28;37480;-60
2022/08/06 05:26:50;;;;;;;2.45;1.23;;;14.10;99.90;;;;;;5026623;28;36491;-57
2022/08/06 05:29:21;;;;;;;4.43;1.13;;;14.30;99.90;;;;;;5025797;28;38147;-57
2022/08/06 05:31:49;;;;;;;3.78;1.35;;;14.60;99.90;;;;;;5027785;28;37507;-57
2022/08/06 05:34:16;;;;;;;2.95;0.98;;;14.90;99.90;;;;;;5026673;28;37532;-57
2022/08/06 05:36:43;;;;;;;3.47;0.98;;;15.00;99.90;;;;;;5025252;28;37718;-60
2022/08/06 05:39:11;;;;;;;2.97;1.20;;;14.90;99.90;;;;;;5024475;28;38264;-57
2022/08/06 05:41:39;;;;;;;3.20;1.63;;;14.90;99.90;;;;;;5026047;28;36785;-57
2022/08/06 05:44:07;;;;;;;4.22;1.00;;;14.90;99.90;;;;;;5022354;28;38033;-57
2022/08/06 05:46:39;;;;;;;5.15;1.10;;;14.80;99.90;;;;;;5027183;28;37212;-56
2022/08/06 05:49:10;;;;;;;2.65;1.02;;;14.80;99.90;;;;;;5025243;28;37336;-57
2022/08/06 05:51:44;;;;;;;3.15;1.17;;;14.70;99.90;;;;;;5029510;28;38824;-60
2022/08/06 05:54:18;;;;;;;2.60;1.17;;;14.60;99.90;;;;;;5024265;28;38689;-57
2022/08/06 05:56:48;;;;;;;4.65;1.10;;;14.60;99.90;;;;;;5025706;28;36761;-57
2022/08/06 05:59:22;;;;;;;2.42;0.98;;;14.60;99.90;;;;;;5027158;28;36270;-57
2022/08/06 06:01:51;;;;;;;1.75;0.85;;;14.50;99.90;;;;;;5021156;28;38309;-60
2022/08/06 06:04:20;;;;;;;3.58;1.27;;;14.50;99.90;;;;;;5025742;28;38383;-60
2022/08/06 06:06:48;;;;;;;3.20;1.48;;;14.60;99.90;;;;;;5026932;28;35227;-60
2022/08/06 06:09:16;;;;;;;3.25;1.20;;;14.70;99.90;;;;;;5025272;28;39396;-57
2022/08/06 06:11:44;;;;;;;4.22;1.00;;;14.90;99.90;;;;;;5027816;28;38525;-60
2022/08/06 06:14:39;;;;;;;3.03;1.42;;;15.20;99.90;;;;;;5025042;28;38506;-60
2022/08/06 06:17:32;;;;;;;3.53;1.05;;;15.60;99.90;;;;;;5024025;28;35957;-60
2022/08/06 06:20:13;;;;;;;3.35;1.40;;;15.80;99.90;;;;;;5025192;28;40113;-61
2022/08/06 06:22:47;;;;;;;3.60;0.88;;;16.10;99.90;;;;;;5032760;28;39081;-57
2022/08/06 06:25:20;;;;;;;2.45;1.05;;;16.30;99.90;;;;;;5026909;28;37280;-57
2022/08/06 06:27:54;;;;;;;2.40;0.90;;;16.40;99.90;;;;;;5031213;28;36172;-61
2022/08/06 06:30:28;;;;;;;2.03;0.90;;;16.50;99.90;;;;;;5032272;28;37446;-61
2022/08/06 06:33:01;;;;;;;3.60;1.00;;;16.60;99.90;;;;;;5028325;28;38323;-61
2022/08/06 06:35:35;;;;;;;3.63;0.75;;;16.60;99.90;;;;;;5029423;28;37172;-61
2022/08/06 06:38:15;;;;;;;4.53;0.70;;;16.60;99.90;;;;;;5027502;28;36865;-60
2022/08/06 06:40:50;;;;;;;1.85;0.60;;;16.50;99.90;;;;;;5029119;28;38063;-61
2022/08/06 06:43:23;;;;;;;1.40;0.70;;;16.50;99.90;;;;;;5029918;28;39155;-60
2022/08/06 06:45:58;;;;;;;2.35;0.68;;;16.50;99.90;;;;;;5028600;28;36116;-57
2022/08/06 06:48:32;;;;;;;1.95;0.75;;;16.50;99.90;;;;;;5028225;28;36741;-57
2022/08/06 06:51:06;;;;;;;3.03;1.05;;;16.40;99.90;;;;;;5032804;28;38323;-57
2022/08/06 06:53:38;;;;;;;2.25;0.80;;;16.50;99.90;;;;;;5028249;28;40543;-61
2022/08/06 06:56:06;;;;;;;3.17;0.90;;;16.60;99.90;;;;;;5029740;28;37130;-61
2022/08/06 06:58:37;;;;;;;3.55;1.13;;;16.80;99.90;;;;;;5029767;28;35291;-61
2022/08/06 07:01:09;;;;;;;3.50;1.10;;;17.00;99.90;;;;;;5030049;28;37459;-57
2022/08/06 07:03:39;;;;;;;5.80;1.10;;;17.10;99.90;;;;;;5027782;28;37319;-57
2022/08/06 07:06:09;;;;;;;3.13;1.02;;;17.20;99.90;;;;;;5030635;28;38474;-57
2022/08/06 07:08:44;;;;;;;2.80;0.80;;;17.40;99.90;;;;;;5028775;28;36205;-56
2022/08/06 07:11:14;;;;;;;;;;;17.50;99.90;;;;;;5029515;28;37349;-57
2022/08/06 07:13:42;;;;;;;;;;;17.60;99.90;;;;;;5025438;28;37772;-57
2022/08/06 07:16:13;;;;;;;2.90;0.80;;;17.70;99.90;;;;;;5029467;28;38246;-57
2022/08/06 07:18:41;;;;;;;5.40;0.80;;;17.80;99.90;;;;;;5022056;28;34949;-57
2022/08/06 07:21:08;;;;;;;2.65;0.80;;;17.90;99.90;;;;;;5023903;28;38847;-57
2022/08/06 07:23:38;;;;;;;3.45;0.85;;;18.00;99.90;;;;;;5023073;28;38336;-57
2022/08/06 07:26:07;;;;;;;3.10;1.00;;;18.10;99.80;;;;;;5026900;28;36216;-57
2022/08/06 07:28:35;;;;;;;3.80;0.93;;;18.20;99.40;;;;;;5026838;28;37307;-57
2022/08/06 07:31:04;;;;;;;;;;;18.30;98.80;;;;;;5022734;28;35939;-57
2022/08/06 07:33:34;;;;;;;;;;;18.40;98.70;;;;;;5025806;28;37760;-57
2022/08/06 07:36:01;;;;;;;4.05;1.13;;;18.40;98.60;;;;;;5024635;28;37470;-57
2022/08/06 07:38:30;;;;;;;;;;;18.50;98.70;;;;;;5026244;28;34729;-57
2022/08/06 07:40:59;;;;;;;;;;;18.60;98.60;;;;;;5023202;28;38363;-57
2022/08/06 07:43:28;;;;;;;;;;;18.70;98.40;;;;;;5029328;28;38374;-57
2022/08/06 07:45:56;;;;;;;;;;;18.80;97.70;;;;;;5026732;28;37716;-57
2022/08/06 07:48:25;;;;;;;;;;;18.90;97.50;;;;;;5028521;28;37503;-61
2022/08/06 07:50:54;;;;;;;;;;;18.90;97.00;;;;;;5032977;28;38017;-61
2022/08/06 07:53:22;;;;;;;;;;;18.80;96.40;;;;;;5028211;28;36754;-61
2022/08/06 07:55:49;;;;;;;;;;;18.70;96.10;;;;;;5032136;28;37333;-61
2022/08/06 07:58:17;;;;;;;4.10;0.93;;;18.70;96.00;;;;;;5028283;28;37617;-61
2022/08/06 08:00:47;;;;;;;5.18;1.73;;;18.80;96.20;;;;;;5028717;28;36222;-57
2022/08/06 08:06:18;;;;;;;3.50;0.80;;;18.80;94.90;;;;;;5026645;28;38370;-57
2022/08/06 08:08:46;;;;;;;3.88;0.75;;;18.70;94.80;;;;;;5027740;28;35921;-61
2022/08/06 08:11:16;;;;;;;3.65;0.75;;;18.60;95.20;;;;;;5027466;28;37845;-57
2022/08/06 08:13:43;;;;;;;4.93;0.82;;;18.50;94.90;;;;;;5026481;28;39447;-62
2022/08/06 08:16:14;;;;;;;2.13;0.82;;;18.50;95.50;;;;;;5030242;28;36769;-57
2022/08/06 08:18:41;;;;;;;3.47;0.70;;;18.70;96.10;;;;;;5031550;28;37412;-57
2022/08/06 08:21:11;;;;;;;5.53;0.80;;;18.80;95.90;;;;;;5029619;28;36162;-57
2022/08/06 08:23:40;;;;;;;3.33;0.75;;;18.80;95.40;;;;;;5034987;28;38566;-57
2022/08/06 08:26:08;;;;;;;4.40;1.08;;;18.70;95.00;;;;;;5034048;28;37784;-57
2022/08/06 08:28:37;;;;;;;2.83;0.68;;;18.70;94.70;;;;;;5023626;28;36334;-57
2022/08/06 08:31:06;;;;;;;3.85;0.80;;;18.60;94.20;;;;;;5031427;28;37699;-57
2022/08/06 08:33:34;;;;;;;4.50;0.68;;;18.50;94.10;;;;;;5028155;28;37529;-57
2022/08/06 08:36:02;;;;;;;2.20;0.57;;;18.40;94.20;;;;;;5030675;28;38554;-57
2022/08/06 08:38:33;;;;;;;2.75;0.90;;;18.30;94.20;;;;;;5030535;28;37535;-57
2022/08/06 08:41:03;;;;;;;3.55;0.70;;;18.30;94.30;;;;;;5029357;28;38518;-56
2022/08/06 08:43:36;;;;;;;3.22;0.70;;;18.20;94.70;;;;;;5029889;28;37395;-57
2022/08/06 08:46:07;;;;;;;3.95;0.50;;;18.20;95.10;;;;;;5027182;28;38748;-57
2022/08/06 08:48:37;;;;;;;4.03;0.60;;;18.20;95.30;;;;;;5019524;28;36454;-57
2022/08/06 08:51:05;;;;;;;4.63;1.08;;;18.20;95.30;;;;;;5030412;28;37636;-57
2022/08/06 08:53:45;;;;;;;4.10;0.98;;;18.20;95.30;;;;;;5033936;28;38205;-57
2022/08/06 08:56:13;;;;;;;5.95;1.10;;;18.20;95.30;;;;;;5031431;28;36292;-57
2022/08/06 08:58:42;;;;;;;15.65;1.92;;;18.10;95.40;;;;;;5030133;28;37556;-57
2022/08/06 09:01:09;;;;;;;5.25;1.27;;;18.10;96.20;;;;;;5034765;28;36375;-57
2022/08/06 09:03:40;;;;;;;5.80;1.67;;;18.00;96.90;;;;;;5033965;28;38117;-56
2022/08/06 09:06:08;;;;;;;5.72;1.50;;;18.00;97.60;;;;;;5032366;28;37516;-57
2022/08/06 09:08:37;;;;;;;5.13;1.30;;;17.90;98.30;;;;;;5032018;28;37372;-57
2022/08/06 09:11:06;;;;;;;8.85;1.50;;;17.90;98.50;;;;;;5033516;28;38453;-57
2022/08/06 09:13:33;;;;;;;5.75;1.38;;;17.90;99.00;;;;;;5031787;28;39977;-57
2022/08/06 09:16:02;;;;;;;3.13;1.17;;;17.90;99.10;;;;;;5034373;28;36018;-57
2022/08/06 09:18:29;;;;;;;4.88;1.45;;;17.90;99.10;;;;;;5027304;28;35288;-57
2022/08/06 09:20:57;;;;;;;6.82;2.17;;;17.90;99.10;;;;;;5028384;28;37056;-56
2022/08/06 09:23:24;;;;;;;8.73;1.50;;;18.00;99.40;;;;;;5024378;28;38349;-57
2022/08/06 09:25:54;;;;;;;3.13;1.23;;;18.10;99.60;;;;;;5025046;28;35953;-57
2022/08/06 09:28:35;;;;;;;5.63;1.30;;;18.30;99.90;;;;;;5027094;28;38415;-57
2022/08/06 09:31:06;;;;;;;7.35;1.45;;;18.70;99.50;;;;;;5023616;28;37186;-57
2022/08/06 09:33:36;;;;;;;3.47;1.23;;;19.00;98.20;;;;;;5025223;28;38997;-57
2022/08/06 09:36:06;;;;;;;3.78;1.20;;;19.40;97.80;;;;;;5027072;28;36290;-57
2022/08/06 09:38:46;;;;;;;5.30;1.45;;;19.60;97.10;;;;;;5026686;28;38531;-57
2022/08/06 09:41:16;;;;;;;3.47;1.20;;;19.70;95.60;;;;;;5030542;28;37931;-57
2022/08/06 09:43:44;;;;;;;4.10;1.60;;;19.90;95.70;;;;;;5012863;28;38257;-57
2022/08/06 09:46:12;;;;;;;4.20;1.70;;;20.00;94.50;;;;;;5015419;28;36962;-57
2022/08/06 09:48:56;;;;;;;5.30;1.45;;;20.10;93.60;;;;;;5030888;28;38349;-57
2022/08/06 09:51:24;;;;;;;4.75;1.48;;;20.20;93.30;;;;;;5032999;28;37125;-57
2022/08/06 09:53:55;;;;;;;4.95;1.80;;;20.20;92.50;;;;;;5015012;28;38991;-57
2022/08/06 09:56:24;;;;;;;4.13;1.52;;;20.30;91.50;;;;;;5029034;28;39279;-57
2022/08/06 09:58:57;;;;;;;5.22;1.70;;;20.40;91.30;;;;;;5010751;28;39528;-56
2022/08/06 10:01:26;;;;;;;5.95;1.75;;;20.60;90.70;;;;;;5033183;28;37561;-57
2022/08/06 10:03:56;;;;;;;2.95;1.45;;;20.60;90.40;;;;;;5030864;28;36642;-57
2022/08/06 10:06:23;;;;;;;4.90;1.60;;;20.80;90.40;;;;;;5030277;28;37488;-57
2022/08/06 10:09:04;;;;;;;4.38;1.95;;;21.00;88.60;;;;;;5009279;28;35947;-57
2022/08/06 10:11:37;;;;;;;3.60;1.50;;;21.00;86.70;;;;;;5019167;28;37632;-57
2022/08/06 10:14:05;;;;;;;4.28;1.70;;;20.80;83.90;;;;;;5020765;28;37922;-57
2022/08/06 10:16:32;;;;;;;3.65;1.35;;;20.50;83.20;;;;;;5025756;28;37418;-57
2022/08/06 10:19:02;;;;;;;4.75;1.50;;;20.30;83.50;;;;;;5031993;28;36584;-57
2022/08/06 10:21:33;;;;;;;9.27;1.83;;;20.10;84.80;;;;;;5030173;28;38469;-57
2022/08/06 10:24:03;;;;;;;4.95;1.70;;;20.10;86.50;;;;;;5033236;28;38618;-57
2022/08/06 10:26:32;;;;;;;3.55;1.38;;;20.20;87.50;;;;;;5027548;28;36002;-57
2022/08/06 10:29:05;;;;;;;3.40;1.42;;;20.30;85.60;;;;;;5031246;28;37608;-57
2022/08/06 10:31:33;;;;;;;;;;;20.10;84.20;;;;;;5033003;28;37429;-57
2022/08/06 10:34:02;;;;;;;5.65;2.00;;;20.00;83.70;;;;;;5030518;28;38891;-57
2022/08/06 10:36:35;;;;;;;5.70;1.77;;;19.90;84.60;;;;;;5030225;28;37548;-57
2022/08/06 10:39:04;;;;;;;4.13;1.90;;;19.80;84.40;;;;;;5030654;28;37723;-57
2022/08/06 10:41:34;;;;;;;4.50;1.50;;;19.90;83.30;;;;;;5029686;28;38343;-57
2022/08/06 10:44:04;;;;;;;5.00;2.00;;;19.90;82.90;;;;;;5031355;28;39125;-57
2022/08/06 10:46:32;;;;;;;4.45;1.70;;;19.90;84.20;;;;;;5030154;28;39329;-56
2022/08/06 10:49:03;;;;;;;4.25;1.73;;;20.00;85.00;;;;;;5032766;28;37743;-57
2022/08/06 10:51:31;;;;;;;3.00;1.63;;;19.90;83.70;;;;;;5028690;28;39271;-57
2022/08/06 10:53:58;;;;;;;4.53;1.73;;;19.80;83.40;;;;;;5033490;28;38813;-57
2022/08/06 10:56:28;;;;;;;4.82;2.15;;;19.80;84.60;;;;;;5031861;28;37452;-57
2022/08/06 10:58:55;;;;;;;4.75;1.80;;;19.70;84.40;;;;;;5031116;28;37146;-57
2022/08/06 11:01:30;;;;;;;4.63;2.08;;;19.80;84.40;;;;;;5026654;28;38641;-57
2022/08/06 11:04:17;;;;;;;4.28;2.10;;;19.90;83.20;;;;;;5030924;28;38686;-57
2022/08/06 11:07:21;;;;;;;4.55;2.33;;;20.20;83.00;;;;;;5032779;28;38705;-57
2022/08/06 11:09:54;;;;;;;;;;;20.50;79.50;;;;;;5023634;28;37035;-57
2022/08/06 11:12:38;;;;;;;3.47;1.75;;;20.60;78.00;;;;;;5031230;28;37600;-57
2022/08/06 11:15:07;;;;;;;3.88;2.10;;;20.50;78.70;;;;;;5034306;28;36665;-57
2022/08/06 11:17:47;;;;;;;4.22;1.95;;;20.50;77.30;;;;;;5031011;28;38086;-57
2022/08/06 11:20:39;;;;;;;5.45;2.78;;;20.40;76.30;;;;;;5046840;28;35771;-58
2022/08/06 11:23:24;;;;;;;6.60;2.05;;;20.30;77.20;;;;;;5053804;28;38210;-57
2022/08/06 11:25:52;;;;;;;6.40;2.22;;;20.40;76.70;;;;;;5055672;28;36411;-57
2022/08/06 11:28:21;;;;;;;4.45;2.53;;;20.50;76.90;;;;;;5039962;28;36031;-57
2022/08/06 11:30:51;;;;;;;4.90;2.13;;;20.60;76.20;;;;;;5045435;28;35302;-57
2022/08/06 11:33:21;;;;;;;3.95;2.15;;;20.60;75.10;;;;;;5036317;28;38706;-57
2022/08/06 11:35:49;;;;;;;4.95;2.38;;;20.60;74.60;;;;;;5048916;28;37878;-57
2022/08/06 11:39:07;;;;;;;5.40;2.38;;;20.50;75.10;;;;;;5035206;28;38182;-57
2022/08/06 11:41:45;;;;;;;4.47;2.20;;;20.40;72.60;;;;;;4975617;28;38005;-57
2022/08/06 11:44:17;;;;;;;4.82;2.08;;;20.30;74.00;;;;;;5035445;28;37461;-57
2022/08/06 11:46:46;;;;;;;4.55;1.95;;;20.20;74.00;;;;;;5043553;28;38656;-57
2022/08/06 11:49:23;;;;;;;6.18;2.63;;;20.20;74.70;;;;;;5043094;28;38281;-57
2022/08/06 11:51:52;;;;;;;6.25;2.70;;;20.30;74.90;;;;;;5050751;28;36709;-57
2022/08/06 11:54:21;;;;;;;4.78;2.65;;;20.40;74.90;;;;;;5048335;28;37239;-57
2022/08/06 11:57:20;;;;;;;5.10;2.30;;;20.40;75.30;;;;;;5046688;28;38932;-57
2022/08/06 12:00:08;;;;;;;5.50;2.78;;;20.50;76.20;;;;;;5046245;28;37542;-57
2022/08/06 12:02:58;;;;;;;4.95;2.53;;;20.70;75.10;;;;;;5047559;28;36440;-57
2022/08/06 12:05:38;;;;;;;4.65;2.65;;;20.90;75.80;;;;;;5046887;28;38893;-57
2022/08/06 12:08:20;;;;;;;4.32;2.30;;;20.90;74.70;;;;;;5047995;28;36711;-57
2022/08/06 12:11:22;;;;;;;5.75;2.40;;;20.80;73.40;;;;;;5047242;28;39200;-56
2022/08/06 12:13:53;;;;;;;5.75;2.65;;;20.80;73.20;;;;;;5045809;28;36193;-57
2022/08/06 12:16:44;;;;;;;6.15;2.75;;;20.80;72.90;;;;;;5047600;28;37443;-56
2022/08/06 12:19:14;;;;;;;5.63;2.38;;;20.70;72.20;;;;;;5025837;28;36591;-57
2022/08/06 12:21:44;;;;;;;6.40;2.47;;;20.70;72.80;;;;;;5030005;28;37373;-57
2022/08/06 12:24:12;;;;;;;5.25;2.92;;;20.70;73.40;;;;;;5052126;28;37226;-57
2022/08/06 12:26:40;;;;;;;4.20;2.42;;;20.70;73.80;;;;;;5048106;28;37314;-57
2022/08/06 12:29:10;;;;;;;5.05;2.65;;;20.70;73.20;;;;;;5035259;28;37882;-57
2022/08/06 12:31:39;;;;;;;4.63;2.47;;;20.70;72.20;;;;;;5048251;28;36854;-57
2022/08/06 12:34:07;;;;;;;4.95;2.40;;;20.70;71.70;;;;;;5051597;28;36559;-57
2022/08/06 12:36:36;;;;;;;6.38;2.65;;;20.80;69.60;;;;;;5043160;28;36204;-57
2022/08/06 12:39:09;;;;;;;5.68;3.20;;;20.70;68.10;;;;;;5050575;28;37648;-57
2022/08/06 12:41:42;;;;;;;5.97;2.95;;;20.70;69.30;;;;;;5041490;28;37182;-57
2022/08/06 12:44:13;;;;;;;5.57;2.63;;;20.70;69.00;;;;;;5043520;28;38373;-57
2022/08/06 12:46:41;;;;;;;6.43;3.08;;;20.70;69.90;;;;;;5042618;28;37518;-57
2022/08/06 12:49:09;;;;;;;5.38;2.88;;;20.80;69.90;;;;;;5041845;28;37217;-57
2022/08/06 12:51:37;;;;;;;5.03;2.80;;;20.80;70.20;;;;;;5053165;28;39814;-61
2022/08/06 12:54:08;;;;;;;5.00;2.80;;;20.90;69.30;;;;;;5046549;28;37514;-61
2022/08/06 12:56:40;;;;;;;6.45;2.85;;;20.90;68.80;;;;;;5038136;28;37446;-61
2022/08/06 12:59:11;;;;;;;5.13;2.88;;;20.90;68.50;;;;;;5054165;28;38118;-57
2022/08/06 13:01:39;;;;;;;5.43;2.50;;;20.90;69.80;;;;;;5039548;28;37394;-57
2022/08/06 13:04:10;;;;;;;8.35;2.72;;;21.00;68.90;;;;;;5048100;28;38028;-58
2022/08/06 13:06:39;;;;;;;4.60;2.45;;;21.00;68.80;;;;;;5054176;28;38617;-57
2022/08/06 13:09:08;;;;;;;4.65;2.47;;;21.00;68.90;;;;;;5054976;28;36387;-57
2022/08/06 13:11:35;;;;;;;4.03;2.63;;;20.90;68.50;;;;;;5040906;28;38198;-57
2022/08/06 13:14:11;;;;;;;5.72;2.75;;;20.90;69.40;;;;;;5046181;28;35216;-57